sensor_id;sensor_type;location;lat;lon;timestamp;temperature;humidity
1988;DHT22;12775;46.994;15.498;2023-11-21T00:00:55;6.70;99.90
1988;DHT22;12775;46.994;15.498;2023-11-21T00:03:22;6.70;99.90
1988;DHT22;12775;46.994;15.498;2023-11-21T00:05:50;6.70;99.90
1988;DHT22;12775;46.994;15.498;2023-11-21T00:08:17;6.80;99.90
1988;DHT22;12775;46.994;15.498;2023-11-21T00:10:45;6.80;99.90
1988;DHT22;12775;46.994;15.498;2023-11-21T00:13:12;6.90;99.90
1988;DHT22;12775;46.994;15.498;2023-11-21T00:15:39;6.90;99.90
1988;DHT22;12775;46.994;15.498;2023-11-21T00:18:07;7.00;99.90
1988;DHT22;12775;46.994;15.498;2023-11-21T00:20:34;7.00;99.90
1988;DHT22;12775;46.994;15.498;2023-11-21T00:23:01;7.00;99.90
1988;DHT22;12775;46.994;15.498;2023-11-21T00:25:29;7.10;99.90
1988;DHT22;12775;46.994;15.498;2023-11-21T00:27:56;7.20;99.90
1988;DHT22;12775;46.994;15.498;2023-11-21T00:30:23;7.20;99.90
1988;DHT22;12775;46.994;15.498;2023-11-21T00:32:51;7.20;99.90
1988;DHT22;12775;46.994;15.498;2023-11-21T00:35:18;7.30;99.90
1988;DHT22;12775;46.994;15.498;2023-11-21T00:37:45;7.30;99.90
1988;DHT22;12775;46.994;15.498;2023-11-21T00:40:13;7.30;99.90
1988;DHT22;12775;46.994;15.498;2023-11-21T00:42:40;7.40;99.90
1988;DHT22;12775;46.994;15.498;2023-11-21T00:45:07;7.30;99.90
1988;DHT22;12775;46.994;15.498;2023-11-21T00:47:34;7.40;99.90
1988;DHT22;12775;46.994;15.498;2023-11-21T00:50:02;7.40;99.90
1988;DHT22;12775;46.994;15.498;2023-11-21T00:52:29;7.40;99.90
1988;DHT22;12775;46.994;15.498;2023-11-21T00:54:56;7.40;99.90
1988;DHT22;12775;46.994;15.498;2023-11-21T00:57:25;7.40;99.90
1988;DHT22;12775;46.994;15.498;2023-11-21T00:59:52;7.50;99.90
1988;DHT22;12775;46.994;15.498;2023-11-21T01:02:19;7.40;99.90
1988;DHT22;12775;46.994;15.498;2023-11-21T01:04:47;7.50;99.90
1988;DHT22;12775;46.994;15.498;2023-11-21T01:07:14;7.50;99.90
1988;DHT22;12775;46.994;15.498;2023-11-21T01:09:41;7.50;99.90
1988;DHT22;12775;46.994;15.498;2023-11-21T01:12:09;7.50;99.90
1988;DHT22;12775;46.994;15.498;2023-11-21T01:14:36;7.50;99.90
1988;DHT22;12775;46.994;15.498;2023-11-21T01:17:04;7.50;99.90
1988;DHT22;12775;46.994;15.498;2023-11-21T01:19:31;7.50;99.90
1988;DHT22;12775;46.994;15.498;2023-11-21T01:21:58;7.50;99.90
1988;DHT22;12775;46.994;15.498;2023-11-21T01:24:26;7.60;99.90
1988;DHT22;12775;46.994;15.498;2023-11-21T01:26:53;7.50;99.90
1988;DHT22;12775;46.994;15.498;2023-11-21T01:29:20;7.50;99.90
1988;DHT22;12775;46.994;15.498;2023-11-21T01:31:48;7.50;99.90
1988;DHT22;12775;46.994;15.498;2023-11-21T01:34:15;7.50;99.90
1988;DHT22;12775;46.994;15.498;2023-11-21T01:36:42;7.50;99.90
1988;DHT22;12775;46.994;15.498;2023-11-21T01:39:09;7.50;99.90
1988;DHT22;12775;46.994;15.498;2023-11-21T01:41:36;7.50;99.90
1988;DHT22;12775;46.994;15.498;2023-11-21T01:44:04;7.50;99.90
1988;DHT22;12775;46.994;15.498;2023-11-21T01:46:32;7.50;99.90
1988;DHT22;12775;46.994;15.498;2023-11-21T01:48:59;7.50;99.90
1988;DHT22;12775;46.994;15.498;2023-11-21T01:51:26;7.50;99.90
1988;DHT22;12775;46.994;15.498;2023-11-21T01:53:54;7.60;99.90
1988;DHT22;12775;46.994;15.498;2023-11-21T01:56:20;7.50;99.90
1988;DHT22;12775;46.994;15.498;2023-11-21T01:58:47;7.60;99.90
1988;DHT22;12775;46.994;15.498;2023-11-21T02:01:14;7.70;99.90
1988;DHT22;12775;46.994;15.498;2023-11-21T02:03:42;7.70;99.90
1988;DHT22;12775;46.994;15.498;2023-11-21T02:06:09;7.70;99.90
1988;DHT22;12775;46.994;15.498;2023-11-21T02:08:36;7.70;99.90
1988;DHT22;12775;46.994;15.498;2023-11-21T02:11:04;7.70;99.90
1988;DHT22;12775;46.994;15.498;2023-11-21T02:13:31;7.70;99.90
1988;DHT22;12775;46.994;15.498;2023-11-21T02:15:59;7.70;99.90
1988;DHT22;12775;46.994;15.498;2023-11-21T02:18:26;7.70;99.90
1988;DHT22;12775;46.994;15.498;2023-11-21T02:20:54;7.80;99.90
1988;DHT22;12775;46.994;15.498;2023-11-21T02:23:21;7.80;99.90
1988;DHT22;12775;46.994;15.498;2023-11-21T02:25:48;7.80;99.90
1988;DHT22;12775;46.994;15.498;2023-11-21T02:28:16;7.80;99.90
1988;DHT22;12775;46.994;15.498;2023-11-21T02:30:43;7.80;99.90
1988;DHT22;12775;46.994;15.498;2023-11-21T02:33:10;7.70;99.90
1988;DHT22;12775;46.994;15.498;2023-11-21T02:35:38;7.60;99.90
1988;DHT22;12775;46.994;15.498;2023-11-21T02:38:05;7.60;99.90
1988;DHT22;12775;46.994;15.498;2023-11-21T02:40:32;7.70;99.90
1988;DHT22;12775;46.994;15.498;2023-11-21T02:42:59;7.60;99.90
1988;DHT22;12775;46.994;15.498;2023-11-21T02:45:26;7.70;99.90
1988;DHT22;12775;46.994;15.498;2023-11-21T02:47:54;7.80;99.90
1988;DHT22;12775;46.994;15.498;2023-11-21T02:50:21;7.80;99.90
1988;DHT22;12775;46.994;15.498;2023-11-21T02:52:48;7.90;99.90
1988;DHT22;12775;46.994;15.498;2023-11-21T02:55:16;7.90;99.90
1988;DHT22;12775;46.994;15.498;2023-11-21T02:57:43;7.90;99.90
1988;DHT22;12775;46.994;15.498;2023-11-21T03:00:12;8.00;99.90
1988;DHT22;12775;46.994;15.498;2023-11-21T03:02:38;8.00;99.90
1988;DHT22;12775;46.994;15.498;2023-11-21T03:05:06;8.10;99.90
1988;DHT22;12775;46.994;15.498;2023-11-21T03:07:33;8.10;99.90
1988;DHT22;12775;46.994;15.498;2023-11-21T03:10:00;8.20;99.90
1988;DHT22;12775;46.994;15.498;2023-11-21T03:12:28;8.20;99.90
1988;DHT22;12775;46.994;15.498;2023-11-21T03:14:55;8.20;99.90
1988;DHT22;12775;46.994;15.498;2023-11-21T03:17:22;8.20;99.90
1988;DHT22;12775;46.994;15.498;2023-11-21T03:19:50;8.20;99.90
1988;DHT22;12775;46.994;15.498;2023-11-21T03:22:17;8.20;99.90
1988;DHT22;12775;46.994;15.498;2023-11-21T03:24:45;8.10;99.90
1988;DHT22;12775;46.994;15.498;2023-11-21T03:27:12;8.10;99.90
1988;DHT22;12775;46.994;15.498;2023-11-21T03:29:39;8.20;99.90
1988;DHT22;12775;46.994;15.498;2023-11-21T03:32:07;8.20;99.90
1988;DHT22;12775;46.994;15.498;2023-11-21T03:34:34;8.20;99.90
1988;DHT22;12775;46.994;15.498;2023-11-21T03:37:03;8.20;99.90
1988;DHT22;12775;46.994;15.498;2023-11-21T03:39:30;8.20;99.90
1988;DHT22;12775;46.994;15.498;2023-11-21T03:41:57;8.10;99.90
1988;DHT22;12775;46.994;15.498;2023-11-21T03:44:25;8.10;99.90
1988;DHT22;12775;46.994;15.498;2023-11-21T03:46:52;8.10;99.90
1988;DHT22;12775;46.994;15.498;2023-11-21T03:49:19;8.10;99.90
1988;DHT22;12775;46.994;15.498;2023-11-21T03:51:46;7.90;99.90
1988;DHT22;12775;46.994;15.498;2023-11-21T03:54:13;7.70;99.90
1988;DHT22;12775;46.994;15.498;2023-11-21T03:56:41;7.60;99.90
1988;DHT22;12775;46.994;15.498;2023-11-21T03:59:08;7.50;99.90
1988;DHT22;12775;46.994;15.498;2023-11-21T04:01:36;7.40;99.90
1988;DHT22;12775;46.994;15.498;2023-11-21T04:04:03;7.50;99.90
1988;DHT22;12775;46.994;15.498;2023-11-21T04:06:30;7.40;99.90
1988;DHT22;12775;46.994;15.498;2023-11-21T04:08:57;7.60;99.90
1988;DHT22;12775;46.994;15.498;2023-11-21T04:11:25;7.60;99.90
1988;DHT22;12775;46.994;15.498;2023-11-21T04:13:51;7.50;99.90
1988;DHT22;12775;46.994;15.498;2023-11-21T04:16:19;7.70;99.90
1988;DHT22;12775;46.994;15.498;2023-11-21T04:18:46;7.70;99.90
1988;DHT22;12775;46.994;15.498;2023-11-21T04:21:13;7.80;99.90
1988;DHT22;12775;46.994;15.498;2023-11-21T04:23:41;7.90;99.90
1988;DHT22;12775;46.994;15.498;2023-11-21T04:26:08;8.00;99.90
1988;DHT22;12775;46.994;15.498;2023-11-21T04:28:35;8.00;99.90
1988;DHT22;12775;46.994;15.498;2023-11-21T04:31:03;8.10;99.90
1988;DHT22;12775;46.994;15.498;2023-11-21T04:33:30;8.20;99.90
1988;DHT22;12775;46.994;15.498;2023-11-21T04:35:57;8.20;99.90
1988;DHT22;12775;46.994;15.498;2023-11-21T04:38:25;8.30;99.90
1988;DHT22;12775;46.994;15.498;2023-11-21T04:40:52;8.40;99.90
1988;DHT22;12775;46.994;15.498;2023-11-21T04:43:19;8.50;99.90
1988;DHT22;12775;46.994;15.498;2023-11-21T04:45:47;8.50;99.90
1988;DHT22;12775;46.994;15.498;2023-11-21T04:48:14;8.50;99.90
1988;DHT22;12775;46.994;15.498;2023-11-21T04:50:42;8.50;99.90
1988;DHT22;12775;46.994;15.498;2023-11-21T04:53:10;8.60;99.90
1988;DHT22;12775;46.994;15.498;2023-11-21T04:55:37;8.60;99.90
1988;DHT22;12775;46.994;15.498;2023-11-21T04:58:05;8.70;99.90
1988;DHT22;12775;46.994;15.498;2023-11-21T05:00:33;8.60;99.90
1988;DHT22;12775;46.994;15.498;2023-11-21T05:03:00;8.70;99.90
1988;DHT22;12775;46.994;15.498;2023-11-21T05:05:28;8.70;99.90
1988;DHT22;12775;46.994;15.498;2023-11-21T05:07:56;8.70;99.90
1988;DHT22;12775;46.994;15.498;2023-11-21T05:10:23;8.70;99.90
1988;DHT22;12775;46.994;15.498;2023-11-21T05:12:50;8.80;99.90
1988;DHT22;12775;46.994;15.498;2023-11-21T05:15:18;8.80;99.90
1988;DHT22;12775;46.994;15.498;2023-11-21T05:17:45;8.80;99.90
1988;DHT22;12775;46.994;15.498;2023-11-21T05:20:13;8.80;99.90
1988;DHT22;12775;46.994;15.498;2023-11-21T05:22:40;8.80;99.90
1988;DHT22;12775;46.994;15.498;2023-11-21T05:25:08;8.80;99.90
1988;DHT22;12775;46.994;15.498;2023-11-21T05:27:35;8.80;99.90
1988;DHT22;12775;46.994;15.498;2023-11-21T05:30:01;8.90;99.90
1988;DHT22;12775;46.994;15.498;2023-11-21T05:32:27;8.90;99.90
1988;DHT22;12775;46.994;15.498;2023-11-21T05:34:54;8.90;99.90
1988;DHT22;12775;46.994;15.498;2023-11-21T05:37:21;8.90;99.90
1988;DHT22;12775;46.994;15.498;2023-11-21T05:39:47;8.90;99.90
1988;DHT22;12775;46.994;15.498;2023-11-21T05:42:15;9.00;99.90
1988;DHT22;12775;46.994;15.498;2023-11-21T05:44:42;8.90;99.90
1988;DHT22;12775;46.994;15.498;2023-11-21T05:47:11;8.90;99.90
1988;DHT22;12775;46.994;15.498;2023-11-21T05:49:38;9.00;99.90
1988;DHT22;12775;46.994;15.498;2023-11-21T05:52:05;8.90;99.90
1988;DHT22;12775;46.994;15.498;2023-11-21T05:54:32;8.90;99.90
1988;DHT22;12775;46.994;15.498;2023-11-21T05:57:00;8.90;99.90
1988;DHT22;12775;46.994;15.498;2023-11-21T05:59:27;8.90;99.90
1988;DHT22;12775;46.994;15.498;2023-11-21T06:01:55;8.90;99.90
1988;DHT22;12775;46.994;15.498;2023-11-21T06:04:21;8.90;99.90
1988;DHT22;12775;46.994;15.498;2023-11-21T06:06:49;8.90;99.90
1988;DHT22;12775;46.994;15.498;2023-11-21T06:09:16;8.90;99.90
1988;DHT22;12775;46.994;15.498;2023-11-21T06:11:43;8.90;99.90
1988;DHT22;12775;46.994;15.498;2023-11-21T06:14:11;8.90;99.90
1988;DHT22;12775;46.994;15.498;2023-11-21T06:16:39;9.00;99.90
1988;DHT22;12775;46.994;15.498;2023-11-21T06:19:05;8.90;99.90
1988;DHT22;12775;46.994;15.498;2023-11-21T06:21:33;9.00;99.90
1988;DHT22;12775;46.994;15.498;2023-11-21T06:24:00;9.00;99.90
1988;DHT22;12775;46.994;15.498;2023-11-21T06:26:28;9.00;99.90
1988;DHT22;12775;46.994;15.498;2023-11-21T06:28:55;9.00;99.90
1988;DHT22;12775;46.994;15.498;2023-11-21T06:31:22;9.00;99.90
1988;DHT22;12775;46.994;15.498;2023-11-21T06:33:50;9.10;99.90
1988;DHT22;12775;46.994;15.498;2023-11-21T06:36:17;9.10;99.90
1988;DHT22;12775;46.994;15.498;2023-11-21T06:38:45;9.00;99.90
1988;DHT22;12775;46.994;15.498;2023-11-21T06:41:12;9.00;99.90
1988;DHT22;12775;46.994;15.498;2023-11-21T06:43:39;9.00;99.90
1988;DHT22;12775;46.994;15.498;2023-11-21T06:46:07;9.00;99.90
1988;DHT22;12775;46.994;15.498;2023-11-21T06:48:34;9.00;99.90
1988;DHT22;12775;46.994;15.498;2023-11-21T06:51:01;9.00;99.90
1988;DHT22;12775;46.994;15.498;2023-11-21T06:53:29;9.00;99.90
1988;DHT22;12775;46.994;15.498;2023-11-21T06:55:56;9.00;99.90
1988;DHT22;12775;46.994;15.498;2023-11-21T06:58:23;9.00;99.90
1988;DHT22;12775;46.994;15.498;2023-11-21T07:00:51;9.00;99.90
1988;DHT22;12775;46.994;15.498;2023-11-21T07:03:18;9.00;99.90
1988;DHT22;12775;46.994;15.498;2023-11-21T07:05:45;9.00;99.90
1988;DHT22;12775;46.994;15.498;2023-11-21T07:08:12;9.10;99.90
1988;DHT22;12775;46.994;15.498;2023-11-21T07:10:39;9.00;99.90
1988;DHT22;12775;46.994;15.498;2023-11-21T07:13:05;9.00;99.90
1988;DHT22;12775;46.994;15.498;2023-11-21T07:15:32;8.80;99.90
1988;DHT22;12775;46.994;15.498;2023-11-21T07:17:58;8.80;99.90
1988;DHT22;12775;46.994;15.498;2023-11-21T07:20:25;8.80;99.90
1988;DHT22;12775;46.994;15.498;2023-11-21T07:22:53;8.80;99.90
1988;DHT22;12775;46.994;15.498;2023-11-21T07:25:21;8.90;99.90
1988;DHT22;12775;46.994;15.498;2023-11-21T07:27:48;8.90;99.90
1988;DHT22;12775;46.994;15.498;2023-11-21T07:30:15;8.90;99.90
1988;DHT22;12775;46.994;15.498;2023-11-21T07:32:42;8.80;99.90
1988;DHT22;12775;46.994;15.498;2023-11-21T07:35:10;8.70;99.90
1988;DHT22;12775;46.994;15.498;2023-11-21T07:37:37;8.70;99.90
1988;DHT22;12775;46.994;15.498;2023-11-21T07:40:05;8.70;99.90
1988;DHT22;12775;46.994;15.498;2023-11-21T07:42:32;8.70;99.90
1988;DHT22;12775;46.994;15.498;2023-11-21T07:44:59;8.60;99.90
1988;DHT22;12775;46.994;15.498;2023-11-21T07:47:27;8.50;99.90
1988;DHT22;12775;46.994;15.498;2023-11-21T07:49:54;8.50;99.90
1988;DHT22;12775;46.994;15.498;2023-11-21T07:52:22;8.50;99.90
1988;DHT22;12775;46.994;15.498;2023-11-21T07:54:49;8.60;99.90
1988;DHT22;12775;46.994;15.498;2023-11-21T07:57:17;8.70;99.90
1988;DHT22;12775;46.994;15.498;2023-11-21T07:59:44;8.70;99.90
1988;DHT22;12775;46.994;15.498;2023-11-21T08:02:11;8.80;99.90
1988;DHT22;12775;46.994;15.498;2023-11-21T08:04:39;8.90;99.90
1988;DHT22;12775;46.994;15.498;2023-11-21T08:07:05;8.90;99.90
1988;DHT22;12775;46.994;15.498;2023-11-21T08:09:33;9.00;99.90
1988;DHT22;12775;46.994;15.498;2023-11-21T08:12:00;9.10;99.90
1988;DHT22;12775;46.994;15.498;2023-11-21T08:14:27;9.20;99.90
1988;DHT22;12775;46.994;15.498;2023-11-21T08:16:55;9.20;99.90
1988;DHT22;12775;46.994;15.498;2023-11-21T08:19:23;9.30;99.90
1988;DHT22;12775;46.994;15.498;2023-11-21T08:21:49;9.30;99.90
1988;DHT22;12775;46.994;15.498;2023-11-21T08:24:17;9.40;99.90
1988;DHT22;12775;46.994;15.498;2023-11-21T08:26:44;9.40;99.90
1988;DHT22;12775;46.994;15.498;2023-11-21T08:29:12;9.50;99.90
1988;DHT22;12775;46.994;15.498;2023-11-21T08:31:39;9.60;99.90
1988;DHT22;12775;46.994;15.498;2023-11-21T08:34:06;9.60;99.90
1988;DHT22;12775;46.994;15.498;2023-11-21T08:36:33;9.60;99.90
1988;DHT22;12775;46.994;15.498;2023-11-21T08:38:59;9.60;99.90
1988;DHT22;12775;46.994;15.498;2023-11-21T08:41:26;9.70;99.90
1988;DHT22;12775;46.994;15.498;2023-11-21T08:43:53;9.80;99.90
1988;DHT22;12775;46.994;15.498;2023-11-21T08:46:21;9.90;99.90
1988;DHT22;12775;46.994;15.498;2023-11-21T08:48:47;9.80;99.90
1988;DHT22;12775;46.994;15.498;2023-11-21T08:51:14;9.90;99.90
1988;DHT22;12775;46.994;15.498;2023-11-21T08:53:41;10.00;99.90
1988;DHT22;12775;46.994;15.498;2023-11-21T08:56:12;10.00;99.90
1988;DHT22;12775;46.994;15.498;2023-11-21T08:58:39;10.10;99.90
1988;DHT22;12775;46.994;15.498;2023-11-21T09:01:06;10.10;99.90
1988;DHT22;12775;46.994;15.498;2023-11-21T09:03:34;10.20;99.90
1988;DHT22;12775;46.994;15.498;2023-11-21T09:06:01;10.20;99.90
1988;DHT22;12775;46.994;15.498;2023-11-21T09:08:29;10.20;99.90
1988;DHT22;12775;46.994;15.498;2023-11-21T09:10:56;10.30;99.90
1988;DHT22;12775;46.994;15.498;2023-11-21T09:13:23;10.30;99.90
1988;DHT22;12775;46.994;15.498;2023-11-21T09:15:51;10.30;99.90
1988;DHT22;12775;46.994;15.498;2023-11-21T09:18:18;10.40;99.90
1988;DHT22;12775;46.994;15.498;2023-11-21T09:20:45;10.50;99.90
1988;DHT22;12775;46.994;15.498;2023-11-21T09:23:13;10.40;99.90
1988;DHT22;12775;46.994;15.498;2023-11-21T09:25:41;10.40;99.90
1988;DHT22;12775;46.994;15.498;2023-11-21T09:28:09;10.40;99.90
1988;DHT22;12775;46.994;15.498;2023-11-21T09:30:36;10.50;99.90
1988;DHT22;12775;46.994;15.498;2023-11-21T09:33:03;10.60;99.90
1988;DHT22;12775;46.994;15.498;2023-11-21T09:35:30;10.70;99.90
1988;DHT22;12775;46.994;15.498;2023-11-21T09:37:58;10.80;99.90
1988;DHT22;12775;46.994;15.498;2023-11-21T09:40:25;10.90;99.90
1988;DHT22;12775;46.994;15.498;2023-11-21T09:42:55;11.00;99.90
1988;DHT22;12775;46.994;15.498;2023-11-21T09:45:26;11.10;99.90
1988;DHT22;12775;46.994;15.498;2023-11-21T09:47:55;11.10;99.90
1988;DHT22;12775;46.994;15.498;2023-11-21T09:50:22;11.20;99.90
1988;DHT22;12775;46.994;15.498;2023-11-21T09:53:11;11.20;99.90
1988;DHT22;12775;46.994;15.498;2023-11-21T09:55:35;11.30;99.90
1988;DHT22;12775;46.994;15.498;2023-11-21T09:58:03;11.40;99.90
1988;DHT22;12775;46.994;15.498;2023-11-21T10:00:31;11.40;99.90
1988;DHT22;12775;46.994;15.498;2023-11-21T10:02:59;11.50;99.90
1988;DHT22;12775;46.994;15.498;2023-11-21T10:05:26;11.50;99.90
1988;DHT22;12775;46.994;15.498;2023-11-21T10:07:54;11.50;99.90
1988;DHT22;12775;46.994;15.498;2023-11-21T10:10:22;11.50;99.90
1988;DHT22;12775;46.994;15.498;2023-11-21T10:12:50;11.40;99.90
1988;DHT22;12775;46.994;15.498;2023-11-21T10:15:16;11.40;99.90
1988;DHT22;12775;46.994;15.498;2023-11-21T10:17:43;11.40;99.90
1988;DHT22;12775;46.994;15.498;2023-11-21T10:20:11;11.30;99.90
1988;DHT22;12775;46.994;15.498;2023-11-21T10:22:38;11.30;99.90
1988;DHT22;12775;46.994;15.498;2023-11-21T10:25:06;11.20;99.90
1988;DHT22;12775;46.994;15.498;2023-11-21T10:27:33;11.20;99.90
1988;DHT22;12775;46.994;15.498;2023-11-21T10:30:01;11.10;99.90
1988;DHT22;12775;46.994;15.498;2023-11-21T10:32:28;11.10;99.90
1988;DHT22;12775;46.994;15.498;2023-11-21T10:34:56;11.20;99.90
1988;DHT22;12775;46.994;15.498;2023-11-21T10:37:22;11.10;99.90
1988;DHT22;12775;46.994;15.498;2023-11-21T10:39:49;11.20;99.90
1988;DHT22;12775;46.994;15.498;2023-11-21T10:42:16;11.20;99.90
1988;DHT22;12775;46.994;15.498;2023-11-21T10:44:43;11.30;99.90
1988;DHT22;12775;46.994;15.498;2023-11-21T10:47:10;11.40;99.90
1988;DHT22;12775;46.994;15.498;2023-11-21T10:49:37;11.40;99.90
1988;DHT22;12775;46.994;15.498;2023-11-21T10:52:04;11.50;99.90
1988;DHT22;12775;46.994;15.498;2023-11-21T10:54:30;11.60;99.90
1988;DHT22;12775;46.994;15.498;2023-11-21T10:56:57;11.70;99.90
1988;DHT22;12775;46.994;15.498;2023-11-21T10:59:28;11.80;99.90
1988;DHT22;12775;46.994;15.498;2023-11-21T11:01:55;11.90;99.90
1988;DHT22;12775;46.994;15.498;2023-11-21T11:04:22;11.90;99.90
1988;DHT22;12775;46.994;15.498;2023-11-21T11:06:54;12.00;99.90
1988;DHT22;12775;46.994;15.498;2023-11-21T11:09:18;12.10;99.90
1988;DHT22;12775;46.994;15.498;2023-11-21T11:11:46;12.10;99.90
1988;DHT22;12775;46.994;15.498;2023-11-21T11:14:13;12.10;99.90
1988;DHT22;12775;46.994;15.498;2023-11-21T11:16:41;12.20;99.90
1988;DHT22;12775;46.994;15.498;2023-11-21T11:19:08;12.20;99.90
1988;DHT22;12775;46.994;15.498;2023-11-21T11:24:10;12.40;99.90
1988;DHT22;12775;46.994;15.498;2023-11-21T11:26:39;12.30;99.90
1988;DHT22;12775;46.994;15.498;2023-11-21T11:29:13;12.40;99.90
1988;DHT22;12775;46.994;15.498;2023-11-21T11:31:40;12.40;99.90
1988;DHT22;12775;46.994;15.498;2023-11-21T11:34:15;12.40;99.90
1988;DHT22;12775;46.994;15.498;2023-11-21T11:36:49;12.50;99.90
1988;DHT22;12775;46.994;15.498;2023-11-21T11:41:55;12.50;99.90
1988;DHT22;12775;46.994;15.498;2023-11-21T11:47:01;12.50;99.90
1988;DHT22;12775;46.994;15.498;2023-11-21T11:49:28;12.60;99.90
1988;DHT22;12775;46.994;15.498;2023-11-21T11:52:36;12.60;99.90
1988;DHT22;12775;46.994;15.498;2023-11-21T11:54:45;12.60;99.90
1988;DHT22;12775;46.994;15.498;2023-11-21T11:57:12;12.60;99.90
1988;DHT22;12775;46.994;15.498;2023-11-21T12:00:18;12.60;99.90
1988;DHT22;12775;46.994;15.498;2023-11-21T12:02:28;12.60;99.90
1988;DHT22;12775;46.994;15.498;2023-11-21T12:04:55;12.60;99.90
1988;DHT22;12775;46.994;15.498;2023-11-21T12:07:21;12.60;99.90
1988;DHT22;12775;46.994;15.498;2023-11-21T12:09:48;12.70;99.90
1988;DHT22;12775;46.994;15.498;2023-11-21T12:12:15;12.70;99.90
1988;DHT22;12775;46.994;15.498;2023-11-21T12:14:42;12.80;99.90
1988;DHT22;12775;46.994;15.498;2023-11-21T12:17:08;12.80;99.90
1988;DHT22;12775;46.994;15.498;2023-11-21T12:19:36;12.90;99.90
1988;DHT22;12775;46.994;15.498;2023-11-21T12:22:02;12.80;99.90
1988;DHT22;12775;46.994;15.498;2023-11-21T12:24:30;13.00;99.90
1988;DHT22;12775;46.994;15.498;2023-11-21T12:26:57;13.00;99.90
1988;DHT22;12775;46.994;15.498;2023-11-21T12:29:24;13.00;99.90
1988;DHT22;12775;46.994;15.498;2023-11-21T12:31:51;12.90;99.90
1988;DHT22;12775;46.994;15.498;2023-11-21T12:34:18;13.00;99.90
1988;DHT22;12775;46.994;15.498;2023-11-21T12:36:45;12.90;99.90
1988;DHT22;12775;46.994;15.498;2023-11-21T12:39:12;12.90;99.90
1988;DHT22;12775;46.994;15.498;2023-11-21T12:41:38;12.90;99.90
1988;DHT22;12775;46.994;15.498;2023-11-21T12:44:09;13.00;99.90
1988;DHT22;12775;46.994;15.498;2023-11-21T12:46:32;13.00;99.90
1988;DHT22;12775;46.994;15.498;2023-11-21T12:48:58;12.90;99.90
1988;DHT22;12775;46.994;15.498;2023-11-21T12:51:25;12.90;99.90
1988;DHT22;12775;46.994;15.498;2023-11-21T12:53:51;12.90;99.90
1988;DHT22;12775;46.994;15.498;2023-11-21T12:56:18;12.90;99.90
1988;DHT22;12775;46.994;15.498;2023-11-21T12:58:45;12.90;99.90
1988;DHT22;12775;46.994;15.498;2023-11-21T13:01:14;13.00;99.90
1988;DHT22;12775;46.994;15.498;2023-11-21T13:03:41;13.00;99.90
1988;DHT22;12775;46.994;15.498;2023-11-21T13:06:08;13.00;99.90
1988;DHT22;12775;46.994;15.498;2023-11-21T13:08:35;12.90;99.90
1988;DHT22;12775;46.994;15.498;2023-11-21T13:11:02;12.90;99.90
1988;DHT22;12775;46.994;15.498;2023-11-21T13:13:29;12.90;99.90
1988;DHT22;12775;46.994;15.498;2023-11-21T13:16:00;12.80;99.90
1988;DHT22;12775;46.994;15.498;2023-11-21T13:18:27;12.80;99.90
1988;DHT22;12775;46.994;15.498;2023-11-21T13:20:55;12.80;99.90
1988;DHT22;12775;46.994;15.498;2023-11-21T13:23:21;12.90;99.90
1988;DHT22;12775;46.994;15.498;2023-11-21T13:25:47;12.80;99.90
1988;DHT22;12775;46.994;15.498;2023-11-21T13:28:14;12.80;99.90
1988;DHT22;12775;46.994;15.498;2023-11-21T13:30:42;12.90;99.90
1988;DHT22;12775;46.994;15.498;2023-11-21T13:33:10;12.90;99.90
1988;DHT22;12775;46.994;15.498;2023-11-21T13:35:37;12.80;99.90
1988;DHT22;12775;46.994;15.498;2023-11-21T13:38:04;12.90;99.90
1988;DHT22;12775;46.994;15.498;2023-11-21T13:40:30;12.70;99.90
1988;DHT22;12775;46.994;15.498;2023-11-21T13:42:58;12.70;99.90
1988;DHT22;12775;46.994;15.498;2023-11-21T13:45:25;12.60;99.90
1988;DHT22;12775;46.994;15.498;2023-11-21T13:47:51;12.70;99.90
1988;DHT22;12775;46.994;15.498;2023-11-21T13:50:18;12.70;99.90
1988;DHT22;12775;46.994;15.498;2023-11-21T13:52:45;12.70;99.90
1988;DHT22;12775;46.994;15.498;2023-11-21T13:55:12;12.70;99.90
1988;DHT22;12775;46.994;15.498;2023-11-21T13:57:38;12.80;99.90
1988;DHT22;12775;46.994;15.498;2023-11-21T14:00:06;12.80;99.90
1988;DHT22;12775;46.994;15.498;2023-11-21T14:02:34;12.70;99.90
1988;DHT22;12775;46.994;15.498;2023-11-21T14:05:01;12.80;99.90
1988;DHT22;12775;46.994;15.498;2023-11-21T14:07:27;12.70;99.90
1988;DHT22;12775;46.994;15.498;2023-11-21T14:09:58;12.70;99.90
1988;DHT22;12775;46.994;15.498;2023-11-21T14:12:25;12.70;99.90
1988;DHT22;12775;46.994;15.498;2023-11-21T14:14:51;12.70;99.90
1988;DHT22;12775;46.994;15.498;2023-11-21T14:17:18;12.60;99.90
1988;DHT22;12775;46.994;15.498;2023-11-21T14:19:45;12.60;99.90
1988;DHT22;12775;46.994;15.498;2023-11-21T14:22:12;12.60;99.90
1988;DHT22;12775;46.994;15.498;2023-11-21T14:24:40;12.60;99.90
1988;DHT22;12775;46.994;15.498;2023-11-21T14:27:07;12.50;99.90
1988;DHT22;12775;46.994;15.498;2023-11-21T14:29:34;12.50;99.90
1988;DHT22;12775;46.994;15.498;2023-11-21T14:32:01;12.50;99.90
1988;DHT22;12775;46.994;15.498;2023-11-21T14:34:29;12.50;99.90
1988;DHT22;12775;46.994;15.498;2023-11-21T14:36:56;12.50;99.90
1988;DHT22;12775;46.994;15.498;2023-11-21T14:39:22;12.50;99.90
1988;DHT22;12775;46.994;15.498;2023-11-21T14:41:50;12.40;99.90
1988;DHT22;12775;46.994;15.498;2023-11-21T14:44:16;12.30;99.90
1988;DHT22;12775;46.994;15.498;2023-11-21T14:46:44;12.30;99.90
1988;DHT22;12775;46.994;15.498;2023-11-21T14:49:10;12.30;99.90
1988;DHT22;12775;46.994;15.498;2023-11-21T14:51:46;12.30;99.90
1988;DHT22;12775;46.994;15.498;2023-11-21T14:54:31;12.20;99.90
1988;DHT22;12775;46.994;15.498;2023-11-21T14:57:02;12.20;99.90
1988;DHT22;12775;46.994;15.498;2023-11-21T14:59:29;12.10;99.90
1988;DHT22;12775;46.994;15.498;2023-11-21T15:01:56;12.10;99.90
1988;DHT22;12775;46.994;15.498;2023-11-21T15:04:22;12.00;99.90
1988;DHT22;12775;46.994;15.498;2023-11-21T15:06:50;12.00;99.90
1988;DHT22;12775;46.994;15.498;2023-11-21T15:09:16;12.00;99.90
1988;DHT22;12775;46.994;15.498;2023-11-21T15:12:01;11.90;99.90
1988;DHT22;12775;46.994;15.498;2023-11-21T15:14:29;11.80;99.90
1988;DHT22;12775;46.994;15.498;2023-11-21T15:16:58;11.80;99.90
1988;DHT22;12775;46.994;15.498;2023-11-21T15:19:25;11.80;99.90
1988;DHT22;12775;46.994;15.498;2023-11-21T15:21:53;11.70;99.90
1988;DHT22;12775;46.994;15.498;2023-11-21T15:24:20;11.60;99.90
1988;DHT22;12775;46.994;15.498;2023-11-21T15:26:46;11.60;99.90
1988;DHT22;12775;46.994;15.498;2023-11-21T15:29:15;11.50;99.90
1988;DHT22;12775;46.994;15.498;2023-11-21T15:31:42;11.50;99.90
1988;DHT22;12775;46.994;15.498;2023-11-21T15:34:09;11.50;99.90
1988;DHT22;12775;46.994;15.498;2023-11-21T15:36:36;11.50;99.90
1988;DHT22;12775;46.994;15.498;2023-11-21T15:39:02;11.50;99.90
1988;DHT22;12775;46.994;15.498;2023-11-21T15:41:29;11.50;99.90
1988;DHT22;12775;46.994;15.498;2023-11-21T15:43:57;11.50;99.90
1988;DHT22;12775;46.994;15.498;2023-11-21T15:46:23;11.50;99.90
1988;DHT22;12775;46.994;15.498;2023-11-21T15:48:49;11.50;99.90